createdAt,value
2018-04-07T00:00:01.369Z,9.16
2018-04-07T00:01:08.208Z,9.15
2018-04-07T00:02:15.016Z,9.13
2018-04-07T00:03:21.928Z,9.10
2018-04-07T00:04:28.680Z,9.09
2018-04-07T00:05:35.472Z,9.08
2018-04-07T00:06:42.277Z,9.06
2018-04-07T00:07:49.025Z,9.03
2018-04-07T00:08:55.780Z,9.01
2018-04-07T00:10:02.603Z,9.00
2018-04-07T00:11:09.355Z,8.98
2018-04-07T00:12:16.094Z,8.95
2018-04-07T00:13:22.816Z,8.94
2018-04-07T00:14:29.640Z,8.91
2018-04-07T00:15:36.368Z,8.90
2018-04-07T00:16:43.091Z,8.88
2018-04-07T00:17:49.872Z,8.84
2018-04-07T00:18:56.709Z,8.83
2018-04-07T00:20:03.484Z,8.81
2018-04-07T00:21:10.320Z,8.78
2018-04-07T00:22:17.153Z,8.77
2018-04-07T00:23:24.013Z,8.74
2018-04-07T00:24:30.936Z,8.73
2018-04-07T00:25:37.713Z,8.71
2018-04-07T00:26:44.452Z,8.70
2018-04-07T00:27:51.196Z,8.67
2018-04-07T00:28:58.276Z,8.65
2018-04-07T00:30:05.116Z,8.62
2018-04-07T00:31:11.938Z,8.61
2018-04-07T00:32:18.711Z,8.60
2018-04-07T00:33:25.460Z,8.57
2018-04-07T00:34:32.244Z,8.54
2018-04-07T00:35:39.032Z,8.53
2018-04-07T00:36:45.795Z,8.51
2018-04-07T00:37:52.768Z,8.49
2018-04-07T00:38:59.572Z,8.48
2018-04-07T00:40:06.325Z,8.46
2018-04-07T00:41:13.135Z,8.43
2018-04-07T00:42:19.867Z,8.40
2018-04-07T00:43:26.628Z,8.41
2018-04-07T00:44:33.811Z,8.38
2018-04-07T00:45:40.644Z,8.36
2018-04-07T00:46:47.403Z,8.35
2018-04-07T00:47:54.163Z,8.32
2018-04-07T00:49:00.944Z,8.30
2018-04-07T00:50:07.795Z,8.28
2018-04-07T00:51:14.540Z,8.26
2018-04-07T00:52:21.296Z,8.24
2018-04-07T00:53:28.257Z,8.22
2018-04-07T00:54:35.092Z,8.19
2018-04-07T00:55:41.911Z,8.18
2018-04-07T00:56:48.798Z,8.16
2018-04-07T00:57:55.532Z,8.14
2018-04-07T00:59:02.309Z,8.12
2018-04-07T01:00:09.152Z,8.11
2018-04-07T01:01:15.919Z,8.10
2018-04-07T01:02:22.712Z,8.07
2018-04-07T01:03:29.448Z,8.05
2018-04-07T01:04:36.256Z,8.04
2018-04-07T01:05:43.000Z,8.01
2018-04-07T01:06:49.800Z,8.01
2018-04-07T01:07:56.535Z,7.98
2018-04-07T01:09:03.367Z,7.96
2018-04-07T01:10:10.178Z,7.95
2018-04-07T01:11:16.949Z,7.93
2018-04-07T01:12:23.704Z,7.92
2018-04-07T01:13:30.464Z,7.90
2018-04-07T01:14:37.212Z,7.88
2018-04-07T01:15:43.952Z,7.86
2018-04-07T01:16:50.745Z,7.83
2018-04-07T01:17:57.584Z,7.83
2018-04-07T01:19:04.291Z,7.80
2018-04-07T01:20:11.016Z,7.79
2018-04-07T01:21:17.731Z,7.76
2018-04-07T01:22:24.748Z,7.76
2018-04-07T01:23:31.506Z,7.73
2018-04-07T01:24:38.228Z,7.71
2018-04-07T01:25:44.961Z,7.70
2018-04-07T01:26:51.672Z,7.68
2018-04-07T01:27:58.599Z,7.65
2018-04-07T01:29:05.420Z,7.65
2018-04-07T01:30:12.260Z,7.62
2018-04-07T01:31:18.984Z,7.60
2018-04-07T01:32:25.737Z,7.58
2018-04-07T01:33:32.456Z,7.57
2018-04-07T01:34:39.176Z,7.54
2018-04-07T01:35:46.019Z,7.53
2018-04-07T01:36:52.779Z,7.52
2018-04-07T01:37:59.544Z,7.49
2018-04-07T01:39:06.273Z,7.48
2018-04-07T01:40:12.984Z,7.47
2018-04-07T01:41:19.768Z,7.45
2018-04-07T01:42:26.480Z,7.43
2018-04-07T01:43:33.308Z,7.41
2018-04-07T01:44:40.013Z,7.39
2018-04-07T01:45:46.879Z,7.36
2018-04-07T01:46:53.567Z,7.35
2018-04-07T01:48:00.304Z,7.33
2018-04-07T01:49:07.080Z,7.32
2018-04-07T01:50:13.936Z,7.30
2018-04-07T01:51:20.654Z,7.28
2018-04-07T01:52:27.410Z,7.27
2018-04-07T01:53:34.218Z,7.25
2018-04-07T01:54:41.120Z,7.22
2018-04-07T01:55:47.933Z,7.21
2018-04-07T01:56:55.095Z,7.21
2018-04-07T01:58:01.779Z,7.18
2018-04-07T01:59:08.549Z,7.15
2018-04-07T02:00:15.305Z,7.16
2018-04-07T02:01:22.012Z,7.13
2018-04-07T02:02:28.733Z,7.11
2018-04-07T02:03:35.456Z,7.09
2018-04-07T02:04:42.228Z,7.08
2018-04-07T02:05:49.081Z,7.06
2018-04-07T02:06:55.812Z,7.04
2018-04-07T02:08:02.564Z,7.03
2018-04-07T02:09:09.345Z,7.02
2018-04-07T02:10:16.161Z,7.01
2018-04-07T02:11:22.939Z,6.97
2018-04-07T02:12:29.656Z,6.97
2018-04-07T02:13:36.392Z,6.94
2018-04-07T02:14:43.224Z,6.94
2018-04-07T02:15:49.984Z,6.91
2018-04-07T02:16:56.732Z,6.90
2018-04-07T02:18:03.465Z,6.89
2018-04-07T02:19:10.245Z,6.88
2018-04-07T02:20:17.017Z,6.85
2018-04-07T02:21:23.756Z,6.82
2018-04-07T02:22:30.484Z,6.81
2018-04-07T02:23:37.224Z,6.79
2018-04-07T02:24:44.009Z,6.79
2018-04-07T02:25:50.744Z,6.76
2018-04-07T02:26:57.463Z,6.75
2018-04-07T02:28:04.204Z,6.74
2018-04-07T02:29:10.911Z,6.72
2018-04-07T02:30:17.744Z,6.71
2018-04-07T02:31:24.489Z,6.70
2018-04-07T02:32:31.229Z,6.67
2018-04-07T02:33:37.996Z,6.66
2018-04-07T02:34:44.821Z,6.63
2018-04-07T02:35:51.560Z,6.61
2018-04-07T02:36:58.305Z,6.59
2018-04-07T02:38:05.028Z,6.59
2018-04-07T02:39:11.757Z,6.56
2018-04-07T02:40:18.552Z,6.56
2018-04-07T02:41:25.309Z,6.53
2018-04-07T02:42:32.077Z,6.53
2018-04-07T02:43:38.800Z,6.51
2018-04-07T02:44:45.683Z,6.50
2018-04-07T02:45:52.428Z,6.48
2018-04-07T02:46:59.182Z,6.45
2018-04-07T02:48:06.066Z,6.44
2018-04-07T02:49:12.816Z,6.42
2018-04-07T02:50:19.676Z,6.41
2018-04-07T02:51:26.496Z,6.40
2018-04-07T02:52:33.424Z,6.38
2018-04-07T02:53:40.273Z,6.36
2018-04-07T02:54:47.009Z,6.35
2018-04-07T02:55:53.756Z,6.34
2018-04-07T02:57:00.507Z,6.34
2018-04-07T02:58:07.452Z,6.32
2018-04-07T02:59:14.191Z,6.29
2018-04-07T03:00:20.917Z,6.29
2018-04-07T03:01:27.677Z,6.27
2018-04-07T03:02:34.425Z,6.26
2018-04-07T03:03:41.144Z,6.23
2018-04-07T03:04:47.905Z,6.22
2018-04-07T03:05:54.732Z,6.21
2018-04-07T03:07:01.501Z,6.18
2018-04-07T03:08:08.471Z,6.17
2018-04-07T03:09:15.285Z,6.16
2018-04-07T03:10:22.044Z,6.15
2018-04-07T03:11:29.144Z,6.12
2018-04-07T03:12:35.992Z,6.12
2018-04-07T03:13:42.736Z,6.09
2018-04-07T03:14:49.524Z,6.06
2018-04-07T03:15:56.260Z,6.05
2018-04-07T03:17:03.000Z,6.06
2018-04-07T03:18:10.016Z,6.03
2018-04-07T03:19:16.799Z,6.02
2018-04-07T03:20:23.530Z,6.00
2018-04-07T03:21:30.600Z,5.99
2018-04-07T03:22:37.412Z,5.97
2018-04-07T03:23:44.198Z,5.96
2018-04-07T03:24:50.908Z,5.95
2018-04-07T03:25:57.661Z,5.93
2018-04-07T03:27:04.376Z,5.91
2018-04-07T03:28:11.258Z,5.90
2018-04-07T03:29:18.011Z,5.91
2018-04-07T03:30:24.737Z,5.87
2018-04-07T03:31:31.713Z,5.86
2018-04-07T03:32:38.455Z,5.84
2018-04-07T03:33:45.214Z,5.83
2018-04-07T03:34:51.954Z,5.80
2018-04-07T03:35:58.748Z,5.80
2018-04-07T03:37:05.512Z,5.77
2018-04-07T03:38:12.561Z,5.76
2018-04-07T03:39:19.304Z,5.76
2018-04-07T03:40:26.030Z,5.73
2018-04-07T03:41:32.780Z,5.74
2018-04-07T03:42:39.511Z,5.73
2018-04-07T03:43:46.312Z,5.71
2018-04-07T03:44:53.041Z,5.69
2018-04-07T03:45:59.771Z,5.68
2018-04-07T03:47:06.569Z,5.68
2018-04-07T03:48:13.372Z,5.65
2018-04-07T03:49:20.219Z,5.65
2018-04-07T03:50:27.018Z,5.63
2018-04-07T03:51:33.822Z,5.61
2018-04-07T03:52:40.529Z,5.59
2018-04-07T03:53:47.314Z,5.58
2018-04-07T03:54:54.030Z,5.58
2018-04-07T03:56:00.773Z,5.56
2018-04-07T03:57:07.572Z,5.56
2018-04-07T03:58:14.336Z,5.54
2018-04-07T03:59:21.148Z,5.53
2018-04-07T04:00:28.008Z,5.52
2018-04-07T04:01:34.796Z,5.49
2018-04-07T04:02:41.560Z,5.49
2018-04-07T04:03:48.348Z,5.47
2018-04-07T04:04:55.114Z,5.45
2018-04-07T04:06:01.885Z,5.44
2018-04-07T04:07:08.663Z,5.45
2018-04-07T04:08:15.536Z,5.42
2018-04-07T04:09:22.307Z,5.43
2018-04-07T04:10:29.064Z,5.40
2018-04-07T04:11:35.880Z,5.39
2018-04-07T04:12:42.628Z,5.39
2018-04-07T04:13:49.404Z,5.38
2018-04-07T04:14:56.175Z,5.36
2018-04-07T04:16:02.892Z,5.36
2018-04-07T04:17:09.740Z,5.34
2018-04-07T04:18:16.568Z,5.33
2018-04-07T04:19:23.422Z,5.31
2018-04-07T04:20:30.208Z,5.30
2018-04-07T04:21:36.908Z,5.28
2018-04-07T04:22:43.647Z,5.28
2018-04-07T04:23:50.408Z,5.26
2018-04-07T04:24:57.160Z,5.25
2018-04-07T04:26:03.985Z,5.24
2018-04-07T04:27:10.733Z,5.24
2018-04-07T04:28:17.477Z,5.21
2018-04-07T04:29:24.220Z,5.20
2018-04-07T04:30:30.948Z,5.19
2018-04-07T04:31:37.740Z,5.17
2018-04-07T04:32:44.457Z,5.18
2018-04-07T04:33:51.190Z,5.16
2018-04-07T04:34:57.964Z,5.16
2018-04-07T04:36:04.673Z,5.12
2018-04-07T04:37:11.484Z,5.12
2018-04-07T04:38:18.197Z,5.12
2018-04-07T04:39:24.957Z,5.10
2018-04-07T04:40:31.836Z,5.09
2018-04-07T04:41:38.579Z,5.07
2018-04-07T04:42:45.352Z,5.07
2018-04-07T04:43:52.089Z,5.06
2018-04-07T04:44:58.825Z,5.04
2018-04-07T04:46:05.625Z,5.02
2018-04-07T04:47:12.340Z,5.01
2018-04-07T04:48:19.079Z,5.01
2018-04-07T04:49:25.844Z,4.99
2018-04-07T04:50:32.591Z,4.98
2018-04-07T04:51:39.428Z,4.97
2018-04-07T04:52:46.145Z,4.97
2018-04-07T04:53:52.879Z,4.94
2018-04-07T04:54:59.646Z,4.94
2018-04-07T04:56:06.368Z,4.92
2018-04-07T04:57:13.143Z,4.91
2018-04-07T04:58:19.972Z,4.90
2018-04-07T04:59:26.892Z,4.90
2018-04-07T05:00:33.642Z,4.88
2018-04-07T05:01:40.417Z,4.87
2018-04-07T05:02:47.132Z,4.86
2018-04-07T05:03:53.872Z,4.86
2018-04-07T05:05:00.857Z,4.84
2018-04-07T05:06:07.621Z,4.84
2018-04-07T05:07:14.448Z,4.83
2018-04-07T05:08:21.165Z,4.81
2018-04-07T05:09:27.902Z,4.80
2018-04-07T05:10:34.736Z,4.80
2018-04-07T05:11:41.839Z,4.76
2018-04-07T05:12:48.793Z,4.77
2018-04-07T05:13:55.520Z,4.75
2018-04-07T05:15:02.340Z,4.74
2018-04-07T05:16:09.147Z,4.74
2018-04-07T05:17:15.925Z,4.73
2018-04-07T05:18:22.707Z,4.72
2018-04-07T05:19:29.556Z,4.71
2018-04-07T05:20:36.357Z,4.69
2018-04-07T05:21:43.118Z,4.70
2018-04-07T05:22:49.812Z,4.69
2018-04-07T05:23:56.548Z,4.68
2018-04-07T05:25:03.347Z,4.66
2018-04-07T05:26:10.079Z,4.65
2018-04-07T05:27:16.860Z,4.64
2018-04-07T05:28:23.800Z,4.63
2018-04-07T05:29:30.532Z,4.63
2018-04-07T05:30:37.272Z,4.62
2018-04-07T05:31:44.096Z,4.59
2018-04-07T05:32:50.892Z,4.59
2018-04-07T05:33:57.629Z,4.60
2018-04-07T05:35:04.408Z,4.57
2018-04-07T05:36:11.156Z,4.59
2018-04-07T05:37:17.894Z,4.57
2018-04-07T05:38:24.631Z,4.56
2018-04-07T05:39:31.392Z,4.56
2018-04-07T05:40:38.099Z,4.54
2018-04-07T05:41:44.807Z,4.54
2018-04-07T05:42:51.548Z,4.53
2018-04-07T05:43:58.270Z,4.54
2018-04-07T05:45:05.059Z,4.52
2018-04-07T05:46:11.744Z,4.53
2018-04-07T05:47:18.512Z,4.53
2018-04-07T05:48:25.232Z,4.52
2018-04-07T05:49:31.964Z,4.51
2018-04-07T05:50:38.800Z,4.51
2018-04-07T05:51:45.532Z,4.49
2018-04-07T05:52:52.280Z,4.51
2018-04-07T05:53:58.995Z,4.50
2018-04-07T05:55:05.709Z,4.49
2018-04-07T05:56:12.407Z,4.51
2018-04-07T05:57:19.164Z,4.50
2018-04-07T05:58:25.888Z,4.50
2018-04-07T05:59:32.585Z,4.49
2018-04-07T06:00:39.363Z,4.48
2018-04-07T06:01:46.076Z,4.49
2018-04-07T06:02:52.832Z,4.47
2018-04-07T06:03:59.632Z,4.48
2018-04-07T06:05:06.333Z,4.48
2018-04-07T06:06:13.108Z,4.48
2018-04-07T06:07:19.884Z,4.47
2018-04-07T06:08:26.836Z,4.47
2018-04-07T06:09:33.582Z,4.47
2018-04-07T06:10:40.379Z,4.47
2018-04-07T06:11:47.249Z,4.47
2018-04-07T06:12:54.000Z,4.48
2018-04-07T06:14:00.737Z,4.48
2018-04-07T06:15:07.541Z,4.48
2018-04-07T06:16:14.412Z,4.47
2018-04-07T06:17:21.129Z,4.49
2018-04-07T06:18:28.009Z,4.50
2018-04-07T06:19:34.875Z,4.51
2018-04-07T06:20:41.594Z,4.51
2018-04-07T06:21:48.381Z,4.53
2018-04-07T06:22:55.223Z,4.52
2018-04-07T06:24:01.945Z,4.54
2018-04-07T06:25:08.705Z,4.55
2018-04-07T06:26:15.424Z,4.56
2018-04-07T06:27:22.132Z,4.59
2018-04-07T06:28:28.824Z,4.60
2018-04-07T06:29:35.660Z,4.61
2018-04-07T06:30:42.465Z,4.63
2018-04-07T06:31:49.185Z,4.66
2018-04-07T06:32:55.911Z,4.66
2018-04-07T06:34:02.785Z,4.71
2018-04-07T06:35:09.528Z,4.73
2018-04-07T06:36:16.281Z,4.75
2018-04-07T06:37:23.009Z,4.78
2018-04-07T06:38:29.728Z,4.79
2018-04-07T06:39:36.528Z,4.81
2018-04-07T06:40:43.252Z,4.84
2018-04-07T06:41:50.011Z,4.85
2018-04-07T06:42:56.971Z,4.87
2018-04-07T06:44:03.857Z,4.91
2018-04-07T06:45:10.605Z,4.93
2018-04-07T06:46:17.456Z,4.97
2018-04-07T06:47:24.244Z,4.99
2018-04-07T06:48:30.984Z,5.01
2018-04-07T06:49:37.761Z,5.05
2018-04-07T06:50:44.559Z,5.07
2018-04-07T06:51:51.379Z,5.10
2018-04-07T06:52:58.133Z,5.13
2018-04-07T06:54:04.870Z,5.16
2018-04-07T06:55:11.679Z,5.18
2018-04-07T06:56:18.403Z,5.24
2018-04-07T06:57:25.156Z,5.27
2018-04-07T06:58:31.912Z,5.30
2018-04-07T06:59:38.769Z,5.32
2018-04-07T07:00:45.530Z,5.37
2018-04-07T07:01:52.240Z,5.40
2018-04-07T07:02:59.012Z,5.44
2018-04-07T07:04:05.871Z,5.46
2018-04-07T07:05:12.640Z,5.50
2018-04-07T07:06:19.404Z,5.56
2018-04-07T07:07:26.121Z,5.58
2018-04-07T07:08:32.924Z,5.61
2018-04-07T07:09:39.655Z,5.66
2018-04-07T07:10:46.532Z,5.70
2018-04-07T07:11:53.259Z,5.73
2018-04-07T07:13:00.177Z,5.76
2018-04-07T07:14:06.963Z,5.80
2018-04-07T07:15:13.762Z,5.83
2018-04-07T07:16:20.538Z,5.88
2018-04-07T07:17:27.317Z,5.91
2018-04-07T07:18:34.076Z,5.96
2018-04-07T07:19:40.964Z,6.00
2018-04-07T07:20:47.684Z,6.04
2018-04-07T07:21:54.508Z,6.08
2018-04-07T07:23:01.231Z,6.13
2018-04-07T07:24:08.106Z,6.18
2018-04-07T07:25:14.892Z,6.22
2018-04-07T07:26:21.670Z,6.27
2018-04-07T07:27:28.584Z,6.31
2018-04-07T07:28:35.369Z,6.35
2018-04-07T07:29:42.186Z,6.39
2018-04-07T07:30:48.955Z,6.45
2018-04-07T07:31:55.764Z,6.50
2018-04-07T07:33:02.479Z,6.53
2018-04-07T07:34:09.204Z,6.58
2018-04-07T07:35:16.053Z,6.61
2018-04-07T07:36:22.775Z,6.69
2018-04-07T07:37:29.520Z,6.71
2018-04-07T07:38:36.345Z,6.77
2018-04-07T07:39:43.139Z,6.81
2018-04-07T07:40:49.845Z,6.85
2018-04-07T07:41:56.581Z,6.91
2018-04-07T07:43:03.316Z,6.95
2018-04-07T07:44:10.016Z,7.00
2018-04-07T07:45:16.858Z,7.05
2018-04-07T07:46:23.620Z,7.10
2018-04-07T07:47:30.381Z,7.14
2018-04-07T07:48:37.091Z,7.18
2018-04-07T07:49:43.916Z,7.26
2018-04-07T07:50:50.688Z,7.30
2018-04-07T07:51:57.448Z,7.35
2018-04-07T07:53:04.260Z,7.41
2018-04-07T07:54:10.981Z,7.44
2018-04-07T07:55:17.723Z,7.49
2018-04-07T07:56:24.436Z,7.55
2018-04-07T07:57:31.192Z,7.59
2018-04-07T07:58:37.913Z,7.67
2018-04-07T07:59:44.780Z,7.71
2018-04-07T08:00:51.528Z,7.77
2018-04-07T08:01:58.239Z,7.79
2018-04-07T08:03:04.996Z,7.86
2018-04-07T08:04:11.780Z,7.91
2018-04-07T08:05:18.508Z,7.95
2018-04-07T08:06:25.344Z,8.02
2018-04-07T08:07:32.404Z,8.05
2018-04-07T08:08:39.139Z,8.09
2018-04-07T08:09:45.885Z,8.14
2018-04-07T08:10:52.684Z,8.19
2018-04-07T08:11:59.514Z,8.25
2018-04-07T08:13:06.272Z,8.31
2018-04-07T08:14:12.988Z,8.36
2018-04-07T08:15:19.788Z,8.41
2018-04-07T08:16:26.635Z,8.46
2018-04-07T08:17:33.384Z,8.50
2018-04-07T08:18:40.203Z,8.56
2018-04-07T08:19:46.900Z,8.60
2018-04-07T08:20:53.626Z,8.65
2018-04-07T08:22:00.360Z,8.72
2018-04-07T08:23:07.321Z,8.75
2018-04-07T08:24:14.048Z,8.82
2018-04-07T08:25:20.790Z,8.88
2018-04-07T08:26:27.530Z,8.93
2018-04-07T08:27:34.389Z,8.98
2018-04-07T08:28:41.218Z,9.02
2018-04-07T08:29:47.993Z,9.09
2018-04-07T08:30:54.841Z,9.13
2018-04-07T08:32:01.686Z,9.19
2018-04-07T08:33:08.485Z,9.25
2018-04-07T08:34:15.251Z,9.31
2018-04-07T08:35:22.008Z,9.36
2018-04-07T08:36:28.757Z,9.43
2018-04-07T08:37:35.642Z,9.47
2018-04-07T08:38:42.416Z,9.53
2018-04-07T08:39:49.177Z,9.59
2018-04-07T08:40:55.927Z,9.65
2018-04-07T08:42:02.739Z,9.70
2018-04-07T08:43:09.578Z,9.77
2018-04-07T08:44:16.334Z,9.82
2018-04-07T08:45:23.208Z,9.90
2018-04-07T08:46:29.908Z,9.95
2018-04-07T08:47:36.644Z,10.02
2018-04-07T08:48:43.422Z,10.06
2018-04-07T08:49:50.223Z,10.13
2018-04-07T08:50:56.927Z,10.19
2018-04-07T08:52:03.667Z,10.25
2018-04-07T08:53:10.412Z,10.31
2018-04-07T08:54:17.308Z,10.37
2018-04-07T08:55:24.076Z,10.42
2018-04-07T08:56:30.854Z,10.48
2018-04-07T08:57:37.566Z,10.53
2018-04-07T08:58:44.423Z,10.61
2018-04-07T08:59:51.169Z,10.66
2018-04-07T09:00:58.009Z,10.73
2018-04-07T09:02:04.812Z,10.77
2018-04-07T09:03:11.548Z,10.83
2018-04-07T09:04:18.289Z,10.88
2018-04-07T09:05:25.050Z,10.96
2018-04-07T09:06:31.895Z,11.00
2018-04-07T09:07:38.605Z,11.06
2018-04-07T09:08:45.373Z,11.12
2018-04-07T09:09:52.173Z,11.19
2018-04-07T09:10:58.980Z,11.26
2018-04-07T09:12:05.771Z,11.31
2018-04-07T09:13:12.552Z,11.37
2018-04-07T09:14:19.317Z,11.44
2018-04-07T09:15:26.109Z,11.51
2018-04-07T09:16:32.853Z,11.57
2018-04-07T09:17:39.603Z,11.61
2018-04-07T09:18:46.380Z,11.70
2018-04-07T09:19:53.149Z,11.76
2018-04-07T09:20:59.940Z,11.83
2018-04-07T09:22:06.704Z,11.88
2018-04-07T09:23:13.594Z,11.95
2018-04-07T09:24:20.389Z,11.99
2018-04-07T09:25:27.171Z,12.06
2018-04-07T09:26:34.113Z,12.12
2018-04-07T09:27:41.016Z,12.19
2018-04-07T09:28:47.852Z,12.26
2018-04-07T09:29:54.626Z,12.31
2018-04-07T09:31:01.420Z,12.37
2018-04-07T09:32:08.256Z,12.42
2018-04-07T09:33:15.021Z,12.49
2018-04-07T09:34:21.804Z,12.55
2018-04-07T09:35:28.527Z,12.63
2018-04-07T09:36:35.335Z,12.69
2018-04-07T09:37:42.344Z,12.75
2018-04-07T09:38:49.284Z,12.82
2018-04-07T09:39:56.044Z,12.88
2018-04-07T09:41:02.876Z,12.94
2018-04-07T09:42:09.721Z,13.00
2018-04-07T09:43:16.523Z,13.06
2018-04-07T09:44:23.359Z,13.13
2018-04-07T09:45:30.224Z,13.20
2018-04-07T09:46:37.084Z,13.25
2018-04-07T09:47:44.220Z,13.32
2018-04-07T09:48:50.648Z,13.38
2018-04-07T09:49:57.508Z,13.43
2018-04-07T09:51:04.312Z,13.50
2018-04-07T09:52:11.177Z,13.57
2018-04-07T09:53:17.939Z,13.61
2018-04-07T09:54:24.964Z,13.68
2018-04-07T09:55:31.712Z,13.73
2018-04-07T09:56:38.478Z,13.80
2018-04-07T09:57:45.508Z,13.85
2018-04-07T09:58:52.288Z,13.92
2018-04-07T09:59:59.092Z,13.97
2018-04-07T10:01:05.920Z,14.02
2018-04-07T10:02:12.789Z,14.09
2018-04-07T10:03:19.701Z,14.14
2018-04-07T10:04:26.809Z,14.21
2018-04-07T10:05:33.604Z,14.28
2018-04-07T10:06:40.377Z,14.33
2018-04-07T10:07:47.156Z,14.37
2018-04-07T10:08:53.932Z,14.46
2018-04-07T10:10:00.677Z,14.51
2018-04-07T10:11:07.605Z,14.56
2018-04-07T10:12:14.448Z,14.63
2018-04-07T10:13:21.245Z,14.70
2018-04-07T10:14:28.004Z,14.74
2018-04-07T10:15:34.837Z,14.81
2018-04-07T10:16:41.600Z,14.87
2018-04-07T10:17:48.380Z,14.94
2018-04-07T10:18:55.324Z,14.98
2018-04-07T10:20:02.132Z,15.07
2018-04-07T10:21:09.021Z,15.12
2018-04-07T10:22:15.815Z,15.18
2018-04-07T10:23:22.611Z,15.26
2018-04-07T10:24:29.452Z,15.31
2018-04-07T10:25:36.213Z,15.37
2018-04-07T10:26:43.012Z,15.45
2018-04-07T10:27:49.809Z,15.51
2018-04-07T10:28:56.629Z,15.57
2018-04-07T10:30:03.452Z,15.63
2018-04-07T10:31:10.261Z,15.70
2018-04-07T10:32:17.112Z,15.77
2018-04-07T10:33:23.877Z,15.84
2018-04-07T10:34:30.685Z,15.90
2018-04-07T10:35:37.496Z,15.95
2018-04-07T10:36:44.284Z,16.01
2018-04-07T10:37:51.091Z,16.08
2018-04-07T10:38:57.907Z,16.13
2018-04-07T10:40:04.694Z,16.20
2018-04-07T10:41:11.511Z,16.27
2018-04-07T10:42:18.240Z,16.32
2018-04-07T10:43:24.981Z,16.38
2018-04-07T10:44:31.768Z,16.43
2018-04-07T10:45:38.583Z,16.50
2018-04-07T10:46:45.337Z,16.56
2018-04-07T10:47:52.109Z,16.63
2018-04-07T10:48:58.861Z,16.70
2018-04-07T10:50:05.677Z,16.75
2018-04-07T10:51:12.436Z,16.81
2018-04-07T10:52:19.221Z,16.87
2018-04-07T10:53:26.076Z,16.92
2018-04-07T10:54:33.171Z,16.98
2018-04-07T10:55:39.952Z,17.04
2018-04-07T10:56:46.836Z,17.11
2018-04-07T10:57:53.744Z,17.17
2018-04-07T10:59:00.521Z,17.22
2018-04-07T11:00:07.268Z,17.28
2018-04-07T11:01:14.140Z,17.35
2018-04-07T11:02:21.961Z,17.40
2018-04-07T11:03:27.700Z,17.46
2018-04-07T11:04:34.881Z,17.50
2018-04-07T11:05:41.692Z,17.56
2018-04-07T11:06:48.468Z,17.61
2018-04-07T11:07:55.325Z,17.67
2018-04-07T11:09:02.132Z,17.73
2018-04-07T11:10:09.056Z,17.77
2018-04-07T11:11:15.927Z,17.84
2018-04-07T11:12:22.844Z,17.88
2018-04-07T11:13:29.706Z,17.95
2018-04-07T11:14:36.701Z,17.99
2018-04-07T11:15:43.563Z,18.05
2018-04-07T11:16:50.387Z,18.11
2018-04-07T11:17:57.169Z,18.16
2018-04-07T11:19:04.031Z,18.21
2018-04-07T11:20:10.827Z,18.27
2018-04-07T11:21:17.678Z,18.32
2018-04-07T11:22:24.436Z,18.36
2018-04-07T11:23:31.211Z,18.41
2018-04-07T11:24:37.955Z,18.46
2018-04-07T11:25:44.757Z,18.51
2018-04-07T11:26:51.467Z,18.56
2018-04-07T11:27:58.269Z,18.59
2018-04-07T11:29:05.092Z,18.64
2018-04-07T11:30:11.872Z,18.70
2018-04-07T11:31:18.609Z,18.74
2018-04-07T11:32:25.361Z,18.78
2018-04-07T11:33:32.141Z,18.82
2018-04-07T11:34:38.940Z,18.89
2018-04-07T11:35:45.679Z,18.92
2018-04-07T11:36:52.466Z,18.98
2018-04-07T11:37:59.220Z,19.01
2018-04-07T11:39:06.143Z,19.08
2018-04-07T11:40:12.958Z,19.13
2018-04-07T11:41:19.757Z,19.16
2018-04-07T11:42:26.540Z,19.21
2018-04-07T11:43:33.316Z,19.28
2018-04-07T11:44:40.473Z,19.31
2018-04-07T11:45:47.301Z,19.37
2018-04-07T11:46:54.028Z,19.40
2018-04-07T11:48:00.768Z,19.45
2018-04-07T11:49:07.610Z,19.50
2018-04-07T11:50:14.365Z,19.54
2018-04-07T11:51:21.566Z,19.59
2018-04-07T11:52:28.423Z,19.65
2018-04-07T11:53:35.309Z,19.69
2018-04-07T11:54:42.327Z,19.73
2018-04-07T11:55:49.112Z,19.76
2018-04-07T11:56:55.931Z,19.80
2018-04-07T11:58:02.681Z,19.86
2018-04-07T11:59:09.561Z,19.90
2018-04-07T12:00:16.332Z,19.92
2018-04-07T12:01:23.089Z,19.96
2018-04-07T12:02:29.878Z,20.00
2018-04-07T12:03:36.688Z,20.05
2018-04-07T12:04:43.433Z,20.10
2018-04-07T12:05:50.228Z,20.14
2018-04-07T12:06:57.111Z,20.18
2018-04-07T12:08:03.915Z,20.23
2018-04-07T12:09:10.855Z,20.26
2018-04-07T12:10:17.641Z,20.30
2018-04-07T12:11:24.478Z,20.33
2018-04-07T12:12:31.273Z,20.39
2018-04-07T12:13:38.029Z,20.43
2018-04-07T12:14:44.828Z,20.47
2018-04-07T12:15:51.724Z,20.50
2018-04-07T12:16:58.473Z,20.54
2018-04-07T12:18:05.263Z,20.58
2018-04-07T12:19:11.996Z,20.61
2018-04-07T12:20:18.837Z,20.65
2018-04-07T12:21:25.700Z,20.70
2018-04-07T12:22:32.478Z,20.74
2018-04-07T12:23:39.237Z,20.77
2018-04-07T12:24:45.969Z,20.80
2018-04-07T12:25:52.749Z,20.84
2018-04-07T12:26:59.608Z,20.87
2018-04-07T12:28:06.348Z,20.89
2018-04-07T12:29:13.133Z,20.92
2018-04-07T12:30:19.961Z,20.95
2018-04-07T12:31:26.809Z,20.99
2018-04-07T12:32:33.643Z,21.04
2018-04-07T12:33:40.500Z,21.06
2018-04-07T12:34:47.551Z,21.09
2018-04-07T12:35:54.313Z,21.11
2018-04-07T12:37:01.161Z,21.14
2018-04-07T12:38:08.192Z,21.17
2018-04-07T12:39:14.949Z,21.20
2018-04-07T12:40:21.779Z,21.23
2018-04-07T12:41:28.639Z,21.26
2018-04-07T12:42:35.364Z,21.28
2018-04-07T12:43:42.156Z,21.31
2018-04-07T12:44:49.220Z,21.34
2018-04-07T12:45:55.971Z,21.36
2018-04-07T12:47:02.828Z,21.39
2018-04-07T12:48:09.613Z,21.41
2018-04-07T12:49:16.359Z,21.45
2018-04-07T12:50:23.100Z,21.46
2018-04-07T12:51:29.912Z,21.50
2018-04-07T12:52:36.832Z,21.52
2018-04-07T12:53:43.668Z,21.53
2018-04-07T12:54:50.437Z,21.55
2018-04-07T12:55:57.225Z,21.58
2018-04-07T12:57:05.061Z,21.60
2018-04-07T12:58:11.772Z,21.63
2018-04-07T12:59:17.541Z,21.66
2018-04-07T13:00:24.343Z,21.68
2018-04-07T13:01:31.198Z,21.70
2018-04-07T13:02:37.971Z,21.72
2018-04-07T13:03:44.801Z,21.75
2018-04-07T13:04:51.648Z,21.76
2018-04-07T13:05:58.372Z,21.79
2018-04-07T13:07:05.226Z,21.81
2018-04-07T13:08:12.277Z,21.84
2018-04-07T13:09:19.000Z,21.84
2018-04-07T13:10:25.738Z,21.85
2018-04-07T13:11:32.520Z,21.90
2018-04-07T13:12:39.334Z,21.91
2018-04-07T13:13:46.123Z,21.93
2018-04-07T13:14:52.961Z,21.94
2018-04-07T13:15:59.693Z,21.95
2018-04-07T13:17:06.436Z,21.97
2018-04-07T13:18:13.416Z,21.99
2018-04-07T13:19:20.167Z,22.00
2018-04-07T13:20:26.968Z,22.04
2018-04-07T13:21:33.816Z,22.05
2018-04-07T13:22:40.584Z,22.07
2018-04-07T13:23:47.460Z,22.09
2018-04-07T13:24:54.245Z,22.10
2018-04-07T13:26:01.381Z,22.13
2018-04-07T13:27:08.148Z,22.15
2018-04-07T13:28:14.957Z,22.16
2018-04-07T13:29:21.819Z,22.18
2018-04-07T13:30:28.569Z,22.19
2018-04-07T13:31:35.465Z,22.20
2018-04-07T13:32:42.312Z,22.21
2018-04-07T13:33:49.057Z,22.24
2018-04-07T13:34:55.884Z,22.26
2018-04-07T13:36:02.753Z,22.28
2018-04-07T13:37:09.516Z,22.31
2018-04-07T13:38:16.312Z,22.32
2018-04-07T13:39:23.064Z,22.33
2018-04-07T13:40:29.837Z,22.34
2018-04-07T13:41:36.617Z,22.35
2018-04-07T13:42:43.389Z,22.37
2018-04-07T13:43:50.165Z,22.39
2018-04-07T13:44:56.944Z,22.40
2018-04-07T13:46:03.692Z,22.42
2018-04-07T13:47:10.548Z,22.43
2018-04-07T13:48:17.419Z,22.43
2018-04-07T13:49:24.192Z,22.45
2018-04-07T13:50:31.052Z,22.46
2018-04-07T13:51:38.245Z,22.48
2018-04-07T13:52:44.569Z,22.49
2018-04-07T13:53:51.388Z,22.50
2018-04-07T13:54:58.146Z,22.52
2018-04-07T13:56:04.920Z,22.54
2018-04-07T13:57:11.694Z,22.55
2018-04-07T13:58:18.484Z,22.56
2018-04-07T13:59:25.281Z,22.57
2018-04-07T14:00:32.045Z,22.59
2018-04-07T14:01:38.860Z,22.59
2018-04-07T14:02:45.692Z,22.60
2018-04-07T14:03:52.492Z,22.62
2018-04-07T14:04:59.268Z,22.63
2018-04-07T14:06:06.076Z,22.65
2018-04-07T14:07:12.908Z,22.67
2018-04-07T14:08:19.676Z,22.67
2018-04-07T14:09:26.482Z,22.68
2018-04-07T14:10:33.479Z,22.68
2018-04-07T14:11:41.313Z,22.70
2018-04-07T14:12:47.161Z,22.73
2018-04-07T14:13:53.937Z,22.74
2018-04-07T14:15:00.696Z,22.74
2018-04-07T14:16:07.648Z,22.75
2018-04-07T14:17:14.457Z,22.76
2018-04-07T14:18:21.312Z,22.78
2018-04-07T14:19:28.069Z,22.79
2018-04-07T14:20:34.944Z,22.80
2018-04-07T14:21:41.673Z,22.81
2018-04-07T14:22:48.521Z,22.82
2018-04-07T14:23:55.288Z,22.82
2018-04-07T14:25:02.042Z,22.83
2018-04-07T14:26:08.948Z,22.83
2018-04-07T14:27:15.718Z,22.87
2018-04-07T14:28:22.460Z,22.85
2018-04-07T14:29:29.415Z,22.86
2018-04-07T14:30:36.204Z,22.87
2018-04-07T14:31:42.985Z,22.90
2018-04-07T14:32:49.877Z,22.89
2018-04-07T14:33:56.725Z,22.92
2018-04-07T14:35:03.516Z,22.91
2018-04-07T14:36:10.320Z,22.92